Time;durP1;ratioP1;P1;durP2;ratioP2;P2;SDS_P1;SDS_P2;PMS_P1;PMS_P2;Temp;Humidity;BMP_temperature;BMP_pressure;BME280_temperature;BME280_humidity;BME280_pressure;Samples;Min_cycle;Max_cycle;Signal;HPM_P1;HPM_P2
2022/02/11 00:00:03;;;;;;;9.53;2.90;;;;;;;4.15;77.09;101157.43;1713733;82;21011;-86
2022/02/11 00:02:18;;;;;;;12.25;2.80;;;;;;;4.15;76.91;101163.95;1714452;83;21003;-86
2022/02/11 00:07:34;;;;;;;11.80;3.70;;;;;;;4.05;76.48;101150.80;1716604;83;20995;-86
2022/02/11 00:10:00;;;;;;;12.15;3.20;;;;;;;3.92;76.25;101152.20;1716768;83;21014;-86
2022/02/11 00:12:27;;;;;;;9.70;2.92;;;;;;;3.81;76.18;101147.66;1716792;83;21039;-86
2022/02/11 00:17:28;;;;;;;13.33;3.23;;;;;;;3.61;76.02;101143.91;1717020;83;21832;-85
2022/02/11 00:19:55;;;;;;;12.70;4.50;;;;;;;3.51;76.01;101146.38;1716975;83;21489;-85
2022/02/11 00:22:22;;;;;;;16.75;3.95;;;;;;;3.44;76.05;101148.11;1716799;83;20983;-85
2022/02/11 00:24:51;;;;;;;14.47;4.25;;;;;;;3.39;76.07;101156.03;1716815;83;21067;-86
2022/02/11 00:30:33;;;;;;;14.78;5.33;;;;;;;3.27;76.18;101160.11;1716917;82;21820;-86
2022/02/11 00:35:38;;;;;;;11.53;3.15;;;;;;;3.22;76.34;101171.92;1716716;82;21094;-85
2022/02/11 00:38:04;;;;;;;12.13;4.05;;;;;;;3.17;76.36;101162.52;1754614;81;21472;-85
2022/02/11 00:45:50;;;;;;;7.60;2.58;;;;;;;3.01;76.41;101169.80;1753921;81;21015;-84
2022/02/11 01:04:24;;;;;;;8.43;2.70;;;;;;;2.97;76.90;101175.61;1754189;80;21131;-85
2022/02/11 01:06:51;;;;;;;9.50;3.15;;;;;;;2.99;77.00;101169.22;1754042;80;21051;-84
2022/02/11 01:09:18;;;;;;;10.43;2.92;;;;;;;3.01;77.05;101168.91;1754086;80;21761;-85
2022/02/11 01:11:57;;;;;;;12.68;2.98;;;;;;;3.03;77.10;101177.70;1753858;81;21037;-85
2022/02/11 01:14:23;;;;;;;18.77;3.42;;;;;;;3.06;77.16;101179.17;1755225;79;21006;-85
2022/02/11 01:16:56;;;;;;;11.68;2.80;;;;;;;3.11;77.25;101173.45;1719758;81;21461;-84
2022/02/11 01:19:42;;;;;;;13.72;3.33;;;;;;;3.21;77.35;101180.52;1754674;80;20998;-84
2022/02/11 01:24:53;;;;;;;11.70;3.02;;;;;;;3.31;77.09;101182.89;1753962;81;21039;-85
2022/02/11 01:32:42;;;;;;;9.20;2.90;;;;;;;3.42;77.20;101190.06;1753930;81;21138;-84
2022/02/11 01:45:08;;;;;;;11.75;3.10;;;;;;;3.83;76.99;101192.92;1764397;81;21446;-86
2022/02/11 01:47:53;;;;;;;11.22;3.05;;;;;;;3.89;76.78;101195.91;1765122;81;22721;-86
2022/02/11 01:52:46;;;;;;;10.70;3.10;;;;;;;3.74;76.20;101188.50;1764278;80;20984;-84
2022/02/11 01:55:18;;;;;;;8.48;2.60;;;;;;;3.60;76.04;101190.26;1761507;81;21036;-84
2022/02/11 02:00:27;;;;;;;10.05;2.67;;;;;;;3.36;76.07;101187.06;1711915;83;21601;-84
2022/02/11 02:19:10;;;;;;;10.75;2.92;;;;;;;3.05;76.75;101189.98;1697854;83;20995;-83
2022/02/11 02:26:32;;;;;;;12.35;2.98;;;;;;;3.16;76.89;101202.77;1716715;83;21767;-83
2022/02/11 02:36:58;;;;;;;9.90;2.98;;;;;;;3.29;76.83;101194.50;1716352;82;20987;-83
2022/02/11 02:39:26;;;;;;;11.88;2.85;;;;;;;3.36;76.92;101194.49;1713420;82;22665;-83
2022/02/11 02:58:18;;;;;;;10.18;2.47;;;;;;;3.53;76.52;101200.72;1716665;83;21062;-82
2022/02/11 03:01:17;;;;;;;9.30;2.67;;;;;;;3.50;76.50;101197.92;1714670;81;20987;-84
2022/02/11 03:50:21;;;;;;;12.35;2.90;;;;;;;2.35;77.50;101199.41;1716767;83;21445;-84
2022/02/11 03:58:02;;;;;;;16.32;2.70;;;;;;;2.53;77.93;101198.38;1716789;83;21023;-85
2022/02/11 05:00:14;;;;;;;11.38;3.02;;;;;;;1.51;78.37;101208.94;1761660;81;20989;-88
2022/02/11 05:02:43;;;;;;;11.65;2.95;;;;;;;1.48;78.45;101209.64;1748028;81;21054;-88
2022/02/11 05:05:15;;;;;;;13.95;2.80;;;;;;;1.45;78.51;101217.20;1739939;82;21014;-87
2022/02/11 05:07:42;;;;;;;13.78;3.30;;;;;;;1.43;78.63;101214.90;1740101;82;21472;-89
2022/02/11 05:10:16;;;;;;;21.37;3.47;;;;;;;1.42;78.74;101213.08;1695731;82;21018;-85
2022/02/11 05:12:43;;;;;;;11.15;3.27;;;;;;;1.43;78.90;101213.60;1740110;82;21046;-89
2022/02/11 05:15:12;;;;;;;19.92;3.40;;;;;;;1.43;78.90;101209.71;1740299;82;20947;-87
2022/02/11 05:17:40;;;;;;;16.60;3.35;;;;;;;1.41;78.91;101204.81;1740116;82;21061;-88
2022/02/11 05:20:09;;;;;;;13.00;3.75;;;;;;;1.40;78.94;101213.78;1740278;82;21666;-89
2022/02/11 05:22:38;;;;;;;14.28;4.10;;;;;;;1.39;79.02;101210.67;1740109;81;20971;-88
2022/02/11 05:25:08;;;;;;;19.48;4.03;;;;;;;1.39;79.08;101215.48;1740336;82;20991;-89
2022/02/11 05:27:35;;;;;;;10.68;3.45;;;;;;;1.38;79.06;101210.19;1720518;82;20971;-87
2022/02/11 05:30:05;;;;;;;11.68;4.15;;;;;;;1.38;79.08;101224.05;1741175;82;21057;-87
2022/02/11 05:32:32;;;;;;;11.03;3.33;;;;;;;1.36;79.12;101215.27;1740821;82;21878;-89
2022/02/11 05:34:58;;;;;;;7.33;2.87;;;;;;;1.34;79.13;101209.97;1740319;81;20984;-90
2022/02/11 05:37:25;;;;;;;16.23;3.33;;;;;;;1.33;79.16;101212.07;1741609;82;21018;-89
2022/02/11 05:39:52;;;;;;;11.48;3.50;;;;;;;1.31;79.17;101214.95;1745125;80;21464;-78
2022/02/11 05:42:22;;;;;;;9.23;3.27;;;;;;;1.31;79.21;101215.33;1745801;81;21515;-82
2022/02/11 05:44:52;;;;;;;15.98;2.95;;;;;;;1.30;79.21;101218.33;1745110;81;22474;-87
2022/02/11 05:47:17;;;;;;;12.98;3.30;;;;;;;1.27;79.21;101221.99;1745122;81;20959;-86
2022/02/11 05:49:44;;;;;;;16.73;3.30;;;;;;;1.25;79.28;101227.47;1745247;82;20951;-87
2022/02/11 05:52:11;;;;;;;14.07;3.55;;;;;;;1.25;79.26;101231.77;1745243;82;21002;-84
2022/02/11 05:54:38;;;;;;;19.85;4.20;;;;;;;1.22;79.34;101229.87;1724164;82;21085;-84
2022/02/11 05:57:05;;;;;;;20.57;3.70;;;;;;;1.21;79.33;101234.95;1745708;82;22532;-87
2022/02/11 05:59:32;;;;;;;17.15;3.98;;;;;;;1.16;79.35;101236.83;1744880;80;20982;-87
2022/02/11 06:01:58;;;;;;;18.90;3.87;;;;;;;1.13;79.35;101236.59;1745888;79;21003;-84
2022/02/11 06:04:25;;;;;;;14.28;3.67;;;;;;;1.10;79.34;101235.07;1753081;81;21149;-85
2022/02/11 06:06:52;;;;;;;16.42;4.40;;;;;;;1.06;79.34;101240.84;1764538;79;21011;-84
2022/02/11 06:09:20;;;;;;;15.30;3.45;;;;;;;1.03;79.33;101246.20;1753724;81;21552;-84
2022/02/11 06:11:47;;;;;;;14.25;3.80;;;;;;;1.00;79.42;101249.89;1742933;80;20999;-84
2022/02/11 06:14:15;;;;;;;15.48;3.45;;;;;;;1.00;79.54;101255.08;1709000;83;21016;-84
2022/02/11 06:16:41;;;;;;;14.10;4.40;;;;;;;0.99;79.56;101254.55;1691833;84;21042;-85
2022/02/11 06:19:08;;;;;;;14.40;3.90;;;;;;;0.97;79.60;101250.14;1709147;83;21011;-85
2022/02/11 06:21:35;;;;;;;15.08;3.77;;;;;;;0.96;79.59;101252.66;1709103;83;21732;-85
2022/02/11 06:24:02;;;;;;;17.42;4.17;;;;;;;0.96;79.80;101253.55;1709094;83;21011;-85
2022/02/11 06:26:28;;;;;;;13.85;4.80;;;;;;;0.97;79.78;101256.63;1708572;84;21058;-85
2022/02/11 06:29:00;;;;;;;16.30;4.25;;;;;;;0.98;79.86;101256.26;1708598;83;21088;-85
2022/02/11 06:31:23;;;;;;;13.83;4.40;;;;;;;1.02;79.95;101263.86;1707629;84;21660;-85
2022/02/11 06:33:51;;;;;;;16.97;4.17;;;;;;;1.05;80.04;101259.80;1709253;83;21765;-85
2022/02/11 06:36:18;;;;;;;17.15;4.47;;;;;;;1.08;80.13;101262.59;1709291;84;21493;-85
2022/02/11 06:38:46;;;;;;;18.27;4.33;;;;;;;1.11;80.11;101268.41;1714506;83;21423;-86
2022/02/11 06:41:13;;;;;;;15.10;3.90;;;;;;;1.16;80.13;101274.80;1716859;82;21011;-84
2022/02/11 06:43:40;;;;;;;12.10;3.92;;;;;;;1.20;80.18;101276.81;1717119;82;21009;-84
2022/02/11 06:46:07;;;;;;;14.15;3.85;;;;;;;1.25;80.22;101271.56;1717097;82;21746;-84
2022/02/11 06:48:33;;;;;;;14.35;4.20;;;;;;;1.30;80.15;101276.69;1717119;82;21540;-85
2022/02/11 06:51:00;;;;;;;12.07;3.87;;;;;;;1.34;80.17;101281.29;1717108;83;20991;-84
2022/02/11 06:53:27;;;;;;;20.05;5.10;;;;;;;1.40;80.21;101281.22;1716979;83;21521;-84
2022/02/11 06:55:53;;;;;;;20.10;5.60;;;;;;;1.46;80.21;101289.02;1717219;83;20991;-84
2022/02/11 06:58:21;;;;;;;16.80;4.37;;;;;;;1.52;80.18;101288.55;1717019;82;22572;-84
2022/02/11 07:00:50;;;;;;;20.43;4.67;;;;;;;1.53;80.10;101287.77;1717038;83;20993;-84
2022/02/11 07:03:17;;;;;;;16.65;4.80;;;;;;;1.62;80.02;101291.01;1716186;82;20987;-84
2022/02/11 07:05:44;;;;;;;16.00;4.72;;;;;;;1.67;80.00;101297.80;1717053;83;20975;-85
2022/02/11 07:08:11;;;;;;;16.23;4.70;;;;;;;1.71;79.98;101298.14;1717197;82;21039;-84
2022/02/11 07:10:37;;;;;;;14.03;4.37;;;;;;;1.77;79.88;101300.26;1716986;83;21691;-84
2022/02/11 07:13:04;;;;;;;14.87;4.33;;;;;;;1.81;79.83;101298.37;1716970;82;21006;-85
2022/02/11 07:15:34;;;;;;;20.35;4.72;;;;;;;1.86;79.78;101299.59;1717075;82;21019;-84
2022/02/11 07:17:59;;;;;;;21.70;4.65;;;;;;;1.92;79.75;101300.41;1716654;83;21116;-84
2022/02/11 07:20:26;;;;;;;20.92;5.22;;;;;;;1.96;79.66;101305.02;1717134;82;21014;-84
2022/02/11 07:22:53;;;;;;;19.23;4.85;;;;;;;1.99;79.62;101296.52;1717121;83;21813;-84
2022/02/11 07:25:21;;;;;;;22.95;5.33;;;;;;;2.05;79.59;101295.66;1716662;83;21031;-84
2022/02/11 07:27:48;;;;;;;18.82;5.92;;;;;;;2.09;79.51;101299.86;1717109;83;21006;-85
2022/02/11 07:30:14;;;;;;;16.62;6.12;;;;;;;2.18;79.56;101297.37;1716960;82;21007;-84
2022/02/11 07:32:41;;;;;;;22.67;6.80;;;;;;;2.25;79.46;101299.58;1717061;83;21133;-84
2022/02/11 07:35:08;;;;;;;20.08;6.30;;;;;;;2.32;79.45;101303.09;1717278;83;21984;-84
2022/02/11 07:37:35;;;;;;;24.12;7.03;;;;;;;2.42;79.46;101300.34;1716709;83;21565;-86
2022/02/11 07:40:03;;;;;;;17.70;7.42;;;;;;;2.52;79.41;101301.84;1714842;82;21032;-85
2022/02/11 07:42:29;;;;;;;26.93;9.28;;;;;;;2.62;79.37;101300.74;1714385;83;21007;-85
2022/02/11 07:44:57;;;;;;;22.50;9.40;;;;;;;2.72;79.31;101300.53;1714790;83;20999;-85
2022/02/11 07:47:26;;;;;;;33.40;10.32;;;;;;;2.80;79.27;101305.84;1714877;82;21737;-85
2022/02/11 07:49:55;;;;;;;32.83;9.63;;;;;;;2.87;79.18;101305.45;1714729;81;20979;-85
2022/02/11 07:52:22;;;;;;;26.93;8.38;;;;;;;2.96;79.16;101306.42;1714735;81;21006;-85
2022/02/11 07:54:48;;;;;;;25.43;9.00;;;;;;;3.04;79.09;101309.14;1714685;82;21059;-85
2022/02/11 07:57:15;;;;;;;24.32;7.20;;;;;;;3.14;79.11;101310.63;1714792;82;20995;-85
2022/02/11 07:59:41;;;;;;;37.38;12.15;;;;;;;3.23;79.03;101311.20;1714776;82;21750;-84
2022/02/11 08:02:08;;;;;;;35.88;12.82;;;;;;;3.34;78.97;101312.27;1714677;83;21066;-85
2022/02/11 08:04:35;;;;;;;31.97;11.15;;;;;;;3.47;78.88;101309.63;1714771;82;20983;-85
2022/02/11 08:07:01;;;;;;;28.52;8.65;;;;;;;3.58;78.74;101309.01;1714853;82;21023;-86
2022/02/11 08:09:28;;;;;;;21.75;5.75;;;;;;;3.69;78.71;101310.57;1714848;83;21031;-86
2022/02/11 08:11:55;;;;;;;17.27;4.37;;;;;;;3.81;78.48;101310.41;1714837;82;21932;-86
2022/02/11 08:14:22;;;;;;;14.35;4.17;;;;;;;3.94;78.32;101323.78;1714846;83;20999;-86
2022/02/11 08:16:49;;;;;;;14.13;4.03;;;;;;;4.07;78.18;101319.81;1714850;83;21873;-86
2022/02/11 08:19:18;;;;;;;14.18;5.45;;;;;;;4.13;77.85;101317.98;1714785;82;20960;-85
2022/02/11 08:21:44;;;;;;;20.08;4.90;;;;;;;4.15;77.54;101319.89;1714606;83;21011;-86
2022/02/11 08:24:10;;;;;;;15.80;4.78;;;;;;;4.19;77.49;101327.08;1714825;82;21735;-86
2022/02/11 08:26:37;;;;;;;22.00;5.35;;;;;;;4.29;77.52;101330.71;1714616;82;21007;-86
2022/02/11 08:29:04;;;;;;;11.43;4.20;;;;;;;4.44;77.49;101328.11;1714879;83;20956;-86
2022/02/11 08:31:33;;;;;;;13.83;4.37;;;;;;;4.57;77.25;101329.73;1714864;83;21015;-86
2022/02/11 08:33:59;;;;;;;16.23;6.87;;;;;;;4.66;76.93;101324.17;1714848;83;21043;-86
2022/02/11 08:36:26;;;;;;;26.85;8.05;;;;;;;4.74;76.81;101328.11;1714688;83;22448;-84
2022/02/11 08:38:55;;;;;;;23.22;8.48;;;;;;;4.82;76.52;101319.42;1714431;82;21022;-84
2022/02/11 08:41:22;;;;;;;28.35;10.65;;;;;;;4.84;76.25;101323.02;1714698;82;21023;-85
2022/02/11 08:43:48;;;;;;;18.02;4.55;;;;;;;4.88;76.05;101318.48;1714411;82;21030;-85
2022/02/11 08:46:15;;;;;;;14.95;4.60;;;;;;;4.90;75.69;101321.16;1714829;83;20987;-85
2022/02/11 08:48:42;;;;;;;15.75;5.12;;;;;;;4.93;75.52;101322.65;1714784;83;21202;-85
2022/02/11 08:51:08;;;;;;;11.70;3.52;;;;;;;4.96;75.44;101326.75;1714685;83;21008;-85
2022/02/11 08:53:35;;;;;;;10.53;3.77;;;;;;;5.02;75.35;101328.39;1714714;83;20963;-86
2022/02/11 08:56:07;;;;;;;21.12;5.40;;;;;;;5.11;75.31;101326.30;1714777;83;21015;-86
2022/02/11 08:58:34;;;;;;;19.92;7.75;;;;;;;5.23;75.27;101328.28;1714718;83;21002;-85
2022/02/11 09:01:01;;;;;;;14.35;4.90;;;;;;;5.38;75.20;101334.75;1714614;82;21730;-86
2022/02/11 09:03:28;;;;;;;12.40;4.30;;;;;;;5.56;75.02;101329.66;1714616;82;21019;-86
2022/02/11 09:05:54;;;;;;;10.32;3.92;;;;;;;5.72;74.58;101322.65;1714748;81;20975;-85
2022/02/11 09:08:22;;;;;;;9.30;3.37;;;;;;;5.78;74.16;101319.97;1714788;82;21852;-86
2022/02/11 09:10:51;;;;;;;15.48;5.17;;;;;;;5.85;74.06;101319.88;1714806;83;21522;-85
2022/02/11 09:13:17;;;;;;;18.85;6.03;;;;;;;5.91;73.85;101321.53;1714673;83;22551;-85
2022/02/11 09:15:45;;;;;;;15.48;5.53;;;;;;;5.96;73.75;101329.20;1714682;81;21029;-86
2022/02/11 09:18:12;;;;;;;23.30;7.10;;;;;;;6.05;73.71;101323.58;1714774;83;20976;-85
2022/02/11 09:20:40;;;;;;;15.30;4.80;;;;;;;6.16;73.65;101328.95;1714741;83;21051;-85
2022/02/11 09:23:07;;;;;;;13.75;3.85;;;;;;;6.28;73.55;101328.69;1714760;82;21027;-85
2022/02/11 09:25:34;;;;;;;12.85;4.00;;;;;;;6.35;73.14;101326.88;1714837;81;21749;-86
2022/02/11 09:28:00;;;;;;;19.77;4.80;;;;;;;6.40;72.79;101334.95;1714684;83;20979;-85
2022/02/11 09:30:27;;;;;;;16.48;4.33;;;;;;;6.32;72.23;101337.59;1714754;81;20967;-86
2022/02/11 09:32:55;;;;;;;18.42;5.60;;;;;;;6.26;72.16;101339.89;1714762;83;21465;-86
2022/02/11 09:35:22;;;;;;;16.65;4.00;;;;;;;6.26;72.30;101340.78;1714711;82;21030;-85
2022/02/11 09:37:49;;;;;;;12.30;3.67;;;;;;;6.36;72.18;101343.45;1714976;83;21832;-86
2022/02/11 09:40:16;;;;;;;14.47;4.62;;;;;;;6.48;72.16;101344.10;1714403;81;20960;-85
2022/02/11 09:42:43;;;;;;;18.32;3.85;;;;;;;6.59;71.87;101346.84;1714730;83;20991;-86
2022/02/11 09:45:14;;;;;;;14.55;4.45;;;;;;;6.67;71.69;101351.16;1689497;83;21536;-85
2022/02/11 09:47:40;;;;;;;15.35;4.47;;;;;;;6.74;71.58;101350.66;1714811;82;22085;-86
2022/02/11 09:50:08;;;;;;;15.10;3.58;;;;;;;6.81;71.35;101347.91;1714798;82;22519;-86
2022/02/11 09:52:40;;;;;;;11.80;3.67;;;;;;;6.86;71.11;101348.16;1714697;83;20940;-86
2022/02/11 09:57:52;;;;;;;13.45;5.10;;;;;;;6.98;70.51;101357.52;1714683;83;20995;-85
2022/02/11 10:00:22;;;;;;;16.12;4.87;;;;;;;6.87;69.95;101357.78;1714662;83;21027;-85
2022/02/11 10:02:53;;;;;;;16.57;4.55;;;;;;;6.84;70.24;101361.16;1714558;83;21739;-85
2022/02/11 10:05:25;;;;;;;13.60;3.80;;;;;;;6.93;70.07;101358.11;1714710;83;21441;-85
2022/02/11 10:07:52;;;;;;;9.50;3.47;;;;;;;6.99;69.66;101363.64;1709699;83;21481;-85
2022/02/11 10:10:38;;;;;;;13.30;3.58;;;;;;;6.97;69.44;101361.36;1714802;83;21019;-86
2022/02/11 10:12:47;;;;;;;10.48;3.65;;;;;;;6.92;69.15;101357.61;1711259;83;20983;-86
2022/02/11 10:15:21;;;;;;;22.95;9.88;;;;;;;6.79;68.91;101362.25;1714665;83;22624;-86
2022/02/11 10:17:47;;;;;;;;;;;;;;;6.68;68.82;101363.81;1717175;82;21040;-86
2022/02/11 10:20:14;;;;;;;14.35;5.10;;;;;;;6.47;68.56;101374.09;1714711;82;20441;-86
2022/02/11 10:22:41;;;;;;;13.95;5.22;;;;;;;6.22;68.62;101371.52;1714731;81;21062;-86
2022/02/11 10:25:07;;;;;;;24.20;4.92;;;;;;;6.03;68.58;101380.98;1714776;82;21530;-86
2022/02/11 10:27:36;;;;;;;17.73;5.67;;;;;;;5.96;68.85;101379.27;1714737;82;21729;-86
2022/02/11 10:30:11;;;;;;;17.50;4.58;;;;;;;6.01;69.27;101384.34;1714617;82;20999;-86
2022/02/11 10:32:46;;;;;;;11.00;3.42;;;;;;;6.16;69.12;101384.27;1715184;83;21429;-85
2022/02/11 10:35:18;;;;;;;15.08;3.67;;;;;;;6.36;69.17;101380.98;1714650;83;21069;-85
2022/02/11 10:38:08;;;;;;;12.25;3.90;;;;;;;6.55;69.04;101387.14;1714664;82;21075;-86
2022/02/11 10:40:37;;;;;;;9.70;3.25;;;;;;;6.69;68.72;101377.41;1714354;82;22504;-86
2022/02/11 10:43:03;;;;;;;9.45;3.30;;;;;;;6.77;68.35;101383.91;1714636;81;21440;-85
2022/02/11 10:45:39;;;;;;;8.88;2.87;;;;;;;6.86;68.20;101379.14;1714672;83;20999;-86
2022/02/11 10:48:18;;;;;;;7.17;2.50;;;;;;;6.96;67.99;101377.88;1693382;83;21003;-85
2022/02/11 10:50:57;;;;;;;10.35;2.83;;;;;;;7.10;67.58;101382.08;1714750;83;21046;-86
2022/02/11 10:53:28;;;;;;;8.00;3.12;;;;;;;7.18;67.25;101378.52;1714766;83;21750;-86
2022/02/11 10:55:54;;;;;;;10.98;3.87;;;;;;;7.18;67.02;101385.95;1714676;83;20990;-86
2022/02/11 10:58:22;;;;;;;11.18;3.10;;;;;;;7.19;67.04;101380.34;1714731;83;21042;-86
2022/02/11 11:00:48;;;;;;;14.07;3.60;;;;;;;7.25;66.80;101380.62;1714577;81;21003;-86
2022/02/11 11:03:15;;;;;;;7.72;2.75;;;;;;;7.36;66.76;101385.08;1714739;83;21000;-86
2022/02/11 11:05:45;;;;;;;10.00;3.22;;;;;;;7.47;66.61;101385.18;1714722;83;21884;-86
2022/02/11 11:08:13;;;;;;;8.98;3.45;;;;;;;7.48;66.28;101389.58;1714669;83;21279;-86
2022/02/11 11:10:44;;;;;;;15.13;4.15;;;;;;;7.42;65.96;101390.60;1714833;82;21028;-85
2022/02/11 11:13:14;;;;;;;35.90;19.95;;;;;;;7.34;65.84;101385.42;1714699;82;21540;-86
2022/02/11 11:15:43;;;;;;;15.05;6.37;;;;;;;7.27;65.79;101391.18;1714230;81;21038;-85
2022/02/11 11:18:15;;;;;;;10.93;3.20;;;;;;;7.18;65.67;101398.16;1713583;83;21764;-85
2022/02/11 11:20:42;;;;;;;10.45;3.90;;;;;;;7.11;65.63;101393.44;1683022;82;20995;-85
2022/02/11 11:23:21;;;;;;;12.68;4.37;;;;;;;6.98;65.64;101398.09;1714704;83;21445;-85
2022/02/11 11:26:23;;;;;;;10.48;3.50;;;;;;;6.90;65.60;101405.05;1714805;83;21002;-85
2022/02/11 11:29:15;;;;;;;10.45;3.15;;;;;;;6.84;65.63;101403.45;1714100;81;20972;-85
2022/02/11 11:31:58;;;;;;;12.98;3.92;;;;;;;6.77;65.69;101405.73;1662877;85;20980;-85
2022/02/11 11:34:33;;;;;;;12.37;3.55;;;;;;;6.70;65.63;101410.58;1714378;82;20991;-85
2022/02/11 11:37:10;;;;;;;15.08;3.95;;;;;;;6.65;65.78;101412.08;1711140;82;21011;-85
2022/02/11 11:39:42;;;;;;;11.33;3.52;;;;;;;6.59;65.73;101412.25;1714397;82;21488;-85
2022/02/11 11:42:14;;;;;;;15.80;4.20;;;;;;;6.53;65.74;101415.86;1692974;83;21015;-85
2022/02/11 11:44:53;;;;;;;16.52;4.70;;;;;;;6.47;65.71;101415.52;1689790;83;21760;-85
2022/02/11 11:47:27;;;;;;;10.35;3.30;;;;;;;6.46;65.79;101413.73;1714827;81;21015;-84
2022/02/11 11:49:54;;;;;;;9.38;2.98;;;;;;;6.49;65.78;101403.84;1712009;81;21516;-84
2022/02/11 11:52:21;;;;;;;20.27;5.87;;;;;;;6.50;65.65;101400.41;1714835;83;21071;-85
2022/02/11 11:54:48;;;;;;;11.33;4.05;;;;;;;6.50;65.69;101403.03;1714900;81;21876;-85
2022/02/11 11:57:18;;;;;;;14.43;4.33;;;;;;;6.49;65.69;101402.52;1689695;83;23112;-85
2022/02/11 11:59:49;;;;;;;14.78;4.53;;;;;;;6.37;65.50;101407.61;1714770;83;20987;-85
2022/02/11 12:02:20;;;;;;;10.30;3.45;;;;;;;6.26;65.55;101406.14;1714879;83;21043;-85
2022/02/11 12:04:53;;;;;;;15.93;4.58;;;;;;;6.22;65.65;101410.30;1714835;82;21012;-85
2022/02/11 12:07:29;;;;;;;16.45;6.40;;;;;;;6.24;65.83;101397.33;1714988;83;21042;-85
2022/02/11 12:09:57;;;;;;;10.95;4.10;;;;;;;6.32;66.03;101395.11;1714760;83;21825;-85
2022/02/11 12:12:27;;;;;;;17.05;5.33;;;;;;;6.47;66.07;101394.59;1714719;82;21429;-85
2022/02/11 12:14:58;;;;;;;16.45;6.50;;;;;;;6.56;66.03;101389.84;1714053;81;21457;-85
2022/02/11 12:17:25;;;;;;;11.73;5.00;;;;;;;6.61;65.98;101393.59;1714769;83;20996;-84
2022/02/11 12:19:53;;;;;;;11.93;4.58;;;;;;;6.65;66.08;101393.34;1692102;83;38191;-86
2022/02/11 12:22:23;;;;;;;11.75;4.60;;;;;;;6.64;66.20;101390.23;1714758;82;21739;-85
2022/02/11 12:27:40;;;;;;;9.20;3.25;;;;;;;6.75;66.39;101395.59;1693285;82;21007;-84
2022/02/11 12:30:15;;;;;;;12.75;5.20;;;;;;;6.81;66.21;101398.94;1714822;82;20983;-84
2022/02/11 12:32:46;;;;;;;11.93;3.87;;;;;;;6.83;66.18;101401.22;1714776;82;21509;-84
2022/02/11 12:35:27;;;;;;;9.50;3.98;;;;;;;6.80;66.03;101401.97;1714700;82;21805;-85
2022/02/11 12:37:54;;;;;;;14.43;3.65;;;;;;;6.78;66.18;101410.16;1714693;83;21025;-85
2022/02/11 12:40:28;;;;;;;17.15;3.83;;;;;;;6.85;66.30;101414.00;1715888;83;21022;-84
2022/02/11 12:43:00;;;;;;;11.75;3.95;;;;;;;6.94;66.27;101409.62;1717045;82;21591;-85
2022/02/11 12:45:31;;;;;;;11.78;3.95;;;;;;;6.99;66.07;101399.86;1717113;83;21056;-84
2022/02/11 12:47:57;;;;;;;14.10;4.35;;;;;;;7.07;66.02;101399.35;1716559;83;21740;-86
2022/02/11 12:50:32;;;;;;;13.85;4.15;;;;;;;7.10;65.88;101397.79;1717040;83;20967;-85
2022/02/11 12:53:00;;;;;;;10.00;5.37;;;;;;;7.09;65.90;101403.83;1717015;83;21035;-85
2022/02/11 12:55:27;;;;;;;16.65;5.22;;;;;;;7.08;65.72;101405.09;1717082;83;21035;-85
2022/02/11 12:57:57;;;;;;;16.85;5.08;;;;;;;7.01;65.60;101406.49;1717191;83;20987;-85
2022/02/11 13:00:25;;;;;;;13.88;6.08;;;;;;;6.89;65.48;101416.33;1717272;83;21737;-85
2022/02/11 13:02:58;;;;;;;12.30;4.17;;;;;;;6.74;65.31;101431.77;1716925;82;21448;-85
2022/02/11 13:05:32;;;;;;;9.83;3.77;;;;;;;6.49;65.29;101462.68;1717276;83;20960;-85
2022/02/11 13:08:01;;;;;;;11.03;2.67;;;;;;;5.93;65.37;101443.08;1717138;82;21070;-85
2022/02/11 13:10:32;;;;;;;3.98;2.37;;;;;;;5.54;66.11;101438.36;1717182;83;21485;-85
2022/02/11 13:13:01;;;;;;;7.17;2.65;;;;;;;5.43;66.85;101436.44;1717087;82;22092;-85
2022/02/11 13:15:30;;;;;;;8.08;2.70;;;;;;;5.36;67.11;101429.06;1716978;82;21833;-85
2022/02/11 13:18:10;;;;;;;7.92;3.00;;;;;;;5.38;67.45;101438.30;1716980;83;21429;-86
2022/02/11 13:20:40;;;;;;;8.60;3.08;;;;;;;5.37;67.92;101446.54;1716983;82;20987;-84
2022/02/11 13:23:07;;;;;;;11.45;2.98;;;;;;;5.41;67.94;101447.20;1716097;82;21016;-84
2022/02/11 13:25:34;;;;;;;12.78;4.35;;;;;;;5.43;68.08;101444.27;1716941;83;21897;-85
2022/02/11 13:28:13;;;;;;;10.78;4.28;;;;;;;5.45;68.24;101440.03;1716929;82;21007;-85
2022/02/11 13:30:46;;;;;;;9.45;4.70;;;;;;;5.50;68.49;101442.00;1717020;83;21027;-85
2022/02/11 13:33:24;;;;;;;12.63;4.60;;;;;;;5.56;68.60;101449.78;1716988;83;21126;-85
2022/02/11 13:35:59;;;;;;;12.65;4.78;;;;;;;5.67;68.87;101447.78;1717056;83;20999;-85
2022/02/11 13:38:34;;;;;;;14.90;5.40;;;;;;;5.81;69.02;101449.84;1715959;82;21053;-85
2022/02/11 13:41:07;;;;;;;10.28;4.37;;;;;;;5.88;69.07;101441.54;1714946;83;21027;-86
2022/02/11 13:43:57;;;;;;;15.43;5.53;;;;;;;5.96;69.03;101435.45;1714969;83;21046;-86
2022/02/11 13:46:36;;;;;;;17.23;5.28;;;;;;;6.01;68.93;101437.92;1714756;81;21486;-86
2022/02/11 13:49:05;;;;;;;12.98;4.03;;;;;;;5.99;68.69;101436.53;1714803;83;21015;-86
2022/02/11 13:51:32;;;;;;;10.03;4.30;;;;;;;5.99;68.37;101437.83;1714656;83;21736;-86
2022/02/11 13:54:14;;;;;;;8.93;4.78;;;;;;;5.95;68.36;101435.88;1714668;83;20956;-86
2022/02/11 13:56:48;;;;;;;16.85;5.15;;;;;;;5.90;68.15;101433.37;1714729;83;21153;-86
2022/02/11 13:59:26;;;;;;;16.20;5.83;;;;;;;5.78;67.99;101437.91;1714737;82;21516;-86
2022/02/11 14:02:07;;;;;;;12.53;4.55;;;;;;;5.62;68.02;101448.81;1714825;83;20999;-86
2022/02/11 14:04:34;;;;;;;14.65;5.35;;;;;;;5.45;67.90;101443.06;1714689;83;21819;-85
2022/02/11 14:07:01;;;;;;;14.23;4.17;;;;;;;5.30;68.15;101449.61;1714693;83;21014;-85
2022/02/11 14:09:41;;;;;;;18.92;7.70;;;;;;;5.26;68.38;101447.64;1714763;83;21008;-85
2022/02/11 14:12:16;;;;;;;32.85;13.28;;;;;;;5.28;68.61;101454.26;1714722;82;20987;-85
2022/02/11 14:15:02;;;;;;;26.68;10.80;;;;;;;5.31;68.83;101451.80;1742750;81;21022;-85
2022/02/11 14:17:29;;;;;;;16.23;5.40;;;;;;;5.35;68.98;101454.70;1714780;83;21751;-85
2022/02/11 14:19:56;;;;;;;6.17;2.95;;;;;;;5.38;68.94;101473.13;1714691;82;22061;-85
2022/02/11 14:22:23;;;;;;;10.10;4.53;;;;;;;5.34;68.98;101490.73;1714753;82;21517;-86
2022/02/11 14:24:49;;;;;;;7.60;3.02;;;;;;;5.08;68.89;101487.91;1714361;83;21007;-85
2022/02/11 14:27:16;;;;;;;8.55;3.42;;;;;;;4.92;69.28;101486.11;1714669;82;21090;-85
2022/02/11 14:29:43;;;;;;;6.80;2.45;;;;;;;4.85;69.62;101478.72;1714710;82;22380;-85
2022/02/11 14:32:09;;;;;;;4.80;2.10;;;;;;;4.92;70.14;101486.11;1714660;83;21011;-86
2022/02/11 14:34:36;;;;;;;5.72;2.40;;;;;;;5.06;70.41;101479.98;1714695;83;20991;-86
2022/02/11 14:37:03;;;;;;;7.10;3.17;;;;;;;5.23;70.46;101478.77;1714655;83;21007;-86
2022/02/11 14:39:30;;;;;;;6.78;3.60;;;;;;;5.37;70.54;101477.87;1714720;83;21504;-86
2022/02/11 14:42:00;;;;;;;13.58;4.65;;;;;;;5.50;70.63;101474.64;1704118;83;21746;-86
2022/02/11 14:44:27;;;;;;;6.45;3.27;;;;;;;5.56;70.53;101478.92;1703982;84;21466;-86
2022/02/11 14:46:56;;;;;;;8.00;3.60;;;;;;;5.62;70.63;101474.05;1704131;83;20965;-85
2022/02/11 14:49:23;;;;;;;8.90;3.20;;;;;;;5.64;70.48;101482.86;1704216;84;21043;-85
2022/02/11 14:52:00;;;;;;;11.90;3.80;;;;;;;5.63;70.37;101486.27;1704419;83;21023;-85
2022/02/11 14:54:27;;;;;;;9.28;3.42;;;;;;;5.56;70.24;101495.48;1704154;83;21894;-85
2022/02/11 14:56:58;;;;;;;7.80;3.85;;;;;;;5.48;70.27;101488.94;1704338;83;20952;-85
2022/02/11 14:59:22;;;;;;;9.83;4.53;;;;;;;5.37;70.20;101492.23;1703739;84;21063;-85
2022/02/11 15:01:49;;;;;;;15.53;5.60;;;;;;;5.25;70.32;101495.03;1704478;84;20976;-85
2022/02/11 15:04:16;;;;;;;12.43;5.80;;;;;;;5.15;70.32;101497.01;1704482;84;21011;-85
2022/02/11 15:06:43;;;;;;;17.55;7.67;;;;;;;4.99;70.30;101501.70;1704403;84;22565;-86
2022/02/11 15:09:10;;;;;;;17.50;7.08;;;;;;;4.83;70.43;101504.71;1704429;84;20976;-85
2022/02/11 15:11:38;;;;;;;17.12;7.87;;;;;;;4.64;70.49;101494.87;1703882;84;20984;-88
2022/02/11 15:14:05;;;;;;;14.98;5.90;;;;;;;4.50;70.70;101498.75;1704746;84;21446;-89